sensor_id;sensor_type;location;lat;lon;timestamp;pressure;altitude;pressure_sealevel;temperature
63220;BMP180;49320;52.512;13.448;2022-08-01T00:00:44;100797.00;;;28.70
63220;BMP180;49320;52.512;13.448;2022-08-01T00:03:10;100800.00;;;28.70
63220;BMP180;49320;52.512;13.448;2022-08-01T00:05:37;100813.00;;;28.70
63220;BMP180;49320;52.512;13.448;2022-08-01T00:08:04;100798.00;;;28.70
63220;BMP180;49320;52.512;13.448;2022-08-01T00:10:32;100795.00;;;28.60
63220;BMP180;49320;52.512;13.448;2022-08-01T00:13:01;100806.00;;;28.60
63220;BMP180;49320;52.512;13.448;2022-08-01T00:15:28;100812.00;;;28.60
63220;BMP180;49320;52.512;13.448;2022-08-01T00:17:55;100827.00;;;28.60
63220;BMP180;49320;52.512;13.448;2022-08-01T00:20:22;100816.00;;;28.60
63220;BMP180;49320;52.512;13.448;2022-08-01T00:22:50;100828.00;;;28.50
63220;BMP180;49320;52.512;13.448;2022-08-01T00:25:17;100821.00;;;28.50
63220;BMP180;49320;52.512;13.448;2022-08-01T00:27:44;100816.00;;;28.50
63220;BMP180;49320;52.512;13.448;2022-08-01T00:30:13;100816.00;;;28.40
63220;BMP180;49320;52.512;13.448;2022-08-01T00:32:43;100805.00;;;28.40
63220;BMP180;49320;52.512;13.448;2022-08-01T00:35:11;100801.00;;;28.40
63220;BMP180;49320;52.512;13.448;2022-08-01T00:37:38;100813.00;;;28.40
63220;BMP180;49320;52.512;13.448;2022-08-01T00:40:07;100811.00;;;28.30
63220;BMP180;49320;52.512;13.448;2022-08-01T00:42:34;100814.00;;;28.20
63220;BMP180;49320;52.512;13.448;2022-08-01T00:45:07;100813.00;;;28.20
63220;BMP180;49320;52.512;13.448;2022-08-01T00:47:34;100817.00;;;28.20
63220;BMP180;49320;52.512;13.448;2022-08-01T00:50:04;100814.00;;;28.10
63220;BMP180;49320;52.512;13.448;2022-08-01T00:52:33;100812.00;;;28.10
63220;BMP180;49320;52.512;13.448;2022-08-01T00:55:01;100813.00;;;28.00
63220;BMP180;49320;52.512;13.448;2022-08-01T00:57:28;100814.00;;;27.90
63220;BMP180;49320;52.512;13.448;2022-08-01T01:00:16;100807.00;;;27.90
63220;BMP180;49320;52.512;13.448;2022-08-01T01:02:43;100798.00;;;27.80
63220;BMP180;49320;52.512;13.448;2022-08-01T01:05:10;100803.00;;;27.80
63220;BMP180;49320;52.512;13.448;2022-08-01T01:07:59;100799.00;;;27.70
63220;BMP180;49320;52.512;13.448;2022-08-01T01:10:56;100799.00;;;27.70
63220;BMP180;49320;52.512;13.448;2022-08-01T01:13:42;100794.00;;;27.70
63220;BMP180;49320;52.512;13.448;2022-08-01T01:16:19;100797.00;;;27.70
63220;BMP180;49320;52.512;13.448;2022-08-01T01:18:58;100796.00;;;27.70
63220;BMP180;49320;52.512;13.448;2022-08-01T01:21:46;100798.00;;;27.70
63220;BMP180;49320;52.512;13.448;2022-08-01T01:27:36;100797.00;;;27.70
63220;BMP180;49320;52.512;13.448;2022-08-01T01:30:06;100797.00;;;27.70
63220;BMP180;49320;52.512;13.448;2022-08-01T01:32:39;100795.00;;;27.70
63220;BMP180;49320;52.512;13.448;2022-08-01T01:35:17;100796.00;;;27.70
63220;BMP180;49320;52.512;13.448;2022-08-01T01:37:51;100784.00;;;27.70
63220;BMP180;49320;52.512;13.448;2022-08-01T01:40:21;100787.00;;;27.70
63220;BMP180;49320;52.512;13.448;2022-08-01T01:42:51;100787.00;;;27.70
63220;BMP180;49320;52.512;13.448;2022-08-01T01:45:18;100777.00;;;27.70
63220;BMP180;49320;52.512;13.448;2022-08-01T01:47:46;100773.00;;;27.70
63220;BMP180;49320;52.512;13.448;2022-08-01T01:50:15;100781.00;;;27.70
63220;BMP180;49320;52.512;13.448;2022-08-01T01:52:44;100767.00;;;27.70
63220;BMP180;49320;52.512;13.448;2022-08-01T01:55:13;100784.00;;;27.70
63220;BMP180;49320;52.512;13.448;2022-08-01T01:57:43;100784.00;;;27.70
63220;BMP180;49320;52.512;13.448;2022-08-01T02:00:12;100796.00;;;27.70
63220;BMP180;49320;52.512;13.448;2022-08-01T02:02:41;100786.00;;;27.70
63220;BMP180;49320;52.512;13.448;2022-08-01T02:05:11;100790.00;;;27.70
63220;BMP180;49320;52.512;13.448;2022-08-01T02:07:40;100785.00;;;27.70
63220;BMP180;49320;52.512;13.448;2022-08-01T02:10:11;100783.00;;;27.70
63220;BMP180;49320;52.512;13.448;2022-08-01T02:12:43;100782.00;;;27.60
63220;BMP180;49320;52.512;13.448;2022-08-01T02:15:14;100779.00;;;27.60
63220;BMP180;49320;52.512;13.448;2022-08-01T02:17:46;100785.00;;;27.60
63220;BMP180;49320;52.512;13.448;2022-08-01T02:20:16;100778.00;;;27.60
63220;BMP180;49320;52.512;13.448;2022-08-01T02:22:50;100788.00;;;27.60
63220;BMP180;49320;52.512;13.448;2022-08-01T02:25:27;100785.00;;;27.60
63220;BMP180;49320;52.512;13.448;2022-08-01T02:28:10;100789.00;;;27.60
63220;BMP180;49320;52.512;13.448;2022-08-01T02:30:44;100787.00;;;27.60
63220;BMP180;49320;52.512;13.448;2022-08-01T02:33:29;100784.00;;;27.60
63220;BMP180;49320;52.512;13.448;2022-08-01T02:36:02;100786.00;;;27.60
63220;BMP180;49320;52.512;13.448;2022-08-01T02:38:50;100788.00;;;27.60
63220;BMP180;49320;52.512;13.448;2022-08-01T02:41:21;100788.00;;;27.60
63220;BMP180;49320;52.512;13.448;2022-08-01T02:43:56;100786.00;;;27.50
63220;BMP180;49320;52.512;13.448;2022-08-01T02:46:54;100790.00;;;27.50
63220;BMP180;49320;52.512;13.448;2022-08-01T02:49:25;100777.00;;;27.50
63220;BMP180;49320;52.512;13.448;2022-08-01T02:51:55;100779.00;;;27.50
63220;BMP180;49320;52.512;13.448;2022-08-01T02:54:24;100781.00;;;27.50
63220;BMP180;49320;52.512;13.448;2022-08-01T02:56:53;100773.00;;;27.50
63220;BMP180;49320;52.512;13.448;2022-08-01T02:59:26;100781.00;;;27.40
63220;BMP180;49320;52.512;13.448;2022-08-01T03:01:57;100791.00;;;27.40
63220;BMP180;49320;52.512;13.448;2022-08-01T03:04:27;100784.00;;;27.40
63220;BMP180;49320;52.512;13.448;2022-08-01T03:06:56;100795.00;;;27.40
63220;BMP180;49320;52.512;13.448;2022-08-01T03:09:27;100796.00;;;27.40
63220;BMP180;49320;52.512;13.448;2022-08-01T03:12:00;100782.00;;;27.40
63220;BMP180;49320;52.512;13.448;2022-08-01T03:14:30;100779.00;;;27.40
63220;BMP180;49320;52.512;13.448;2022-08-01T03:17:00;100778.00;;;27.40
63220;BMP180;49320;52.512;13.448;2022-08-01T03:19:30;100789.00;;;27.40
63220;BMP180;49320;52.512;13.448;2022-08-01T03:21:59;100793.00;;;27.40
63220;BMP180;49320;52.512;13.448;2022-08-01T03:24:33;100783.00;;;27.30
63220;BMP180;49320;52.512;13.448;2022-08-01T03:27:03;100786.00;;;27.30
63220;BMP180;49320;52.512;13.448;2022-08-01T03:29:32;100796.00;;;27.30
63220;BMP180;49320;52.512;13.448;2022-08-01T03:32:01;100790.00;;;27.30
63220;BMP180;49320;52.512;13.448;2022-08-01T03:34:30;100798.00;;;27.30
63220;BMP180;49320;52.512;13.448;2022-08-01T03:37:07;100797.00;;;27.20
63220;BMP180;49320;52.512;13.448;2022-08-01T03:39:46;100798.00;;;27.20
63220;BMP180;49320;52.512;13.448;2022-08-01T03:42:19;100808.00;;;27.20
63220;BMP180;49320;52.512;13.448;2022-08-01T03:44:54;100816.00;;;27.10
63220;BMP180;49320;52.512;13.448;2022-08-01T03:47:26;100810.00;;;27.10
63220;BMP180;49320;52.512;13.448;2022-08-01T03:49:58;100811.00;;;27.10
63220;BMP180;49320;52.512;13.448;2022-08-01T03:52:30;100808.00;;;27.10
63220;BMP180;49320;52.512;13.448;2022-08-01T03:55:01;100810.00;;;27.20
63220;BMP180;49320;52.512;13.448;2022-08-01T03:57:30;100810.00;;;27.20
63220;BMP180;49320;52.512;13.448;2022-08-01T04:00:05;100816.00;;;27.20
63220;BMP180;49320;52.512;13.448;2022-08-01T04:02:36;100813.00;;;27.10
63220;BMP180;49320;52.512;13.448;2022-08-01T04:05:05;100808.00;;;27.10
63220;BMP180;49320;52.512;13.448;2022-08-01T04:07:33;100806.00;;;27.10
63220;BMP180;49320;52.512;13.448;2022-08-01T04:10:06;100807.00;;;27.10
63220;BMP180;49320;52.512;13.448;2022-08-01T04:12:34;100814.00;;;27.10
63220;BMP180;49320;52.512;13.448;2022-08-01T04:15:02;100815.00;;;27.10
63220;BMP180;49320;52.512;13.448;2022-08-01T04:17:29;100808.00;;;27.10
63220;BMP180;49320;52.512;13.448;2022-08-01T04:19:56;100807.00;;;27.20
63220;BMP180;49320;52.512;13.448;2022-08-01T04:22:23;100813.00;;;27.10
63220;BMP180;49320;52.512;13.448;2022-08-01T04:24:55;100811.00;;;27.10
63220;BMP180;49320;52.512;13.448;2022-08-01T04:27:29;100810.00;;;27.10
63220;BMP180;49320;52.512;13.448;2022-08-01T04:30:26;100801.00;;;27.10
63220;BMP180;49320;52.512;13.448;2022-08-01T04:32:57;100798.00;;;27.10
63220;BMP180;49320;52.512;13.448;2022-08-01T04:35:27;100815.00;;;27.10
63220;BMP180;49320;52.512;13.448;2022-08-01T04:38:20;100808.00;;;27.10
63220;BMP180;49320;52.512;13.448;2022-08-01T04:40:51;100815.00;;;27.20
63220;BMP180;49320;52.512;13.448;2022-08-01T04:43:19;100810.00;;;27.30
63220;BMP180;49320;52.512;13.448;2022-08-01T04:45:47;100810.00;;;27.30
63220;BMP180;49320;52.512;13.448;2022-08-01T04:48:17;100822.00;;;27.30
63220;BMP180;49320;52.512;13.448;2022-08-01T04:50:49;100824.00;;;27.30
63220;BMP180;49320;52.512;13.448;2022-08-01T04:53:18;100819.00;;;27.40
63220;BMP180;49320;52.512;13.448;2022-08-01T04:55:46;100820.00;;;27.40
63220;BMP180;49320;52.512;13.448;2022-08-01T04:58:14;100829.00;;;27.40
63220;BMP180;49320;52.512;13.448;2022-08-01T05:00:45;100819.00;;;27.40
63220;BMP180;49320;52.512;13.448;2022-08-01T05:03:13;100825.00;;;27.50
63220;BMP180;49320;52.512;13.448;2022-08-01T05:05:40;100827.00;;;27.50
63220;BMP180;49320;52.512;13.448;2022-08-01T05:08:07;100828.00;;;27.40
63220;BMP180;49320;52.512;13.448;2022-08-01T05:10:34;100825.00;;;27.40
63220;BMP180;49320;52.512;13.448;2022-08-01T05:13:01;100834.00;;;27.30
63220;BMP180;49320;52.512;13.448;2022-08-01T05:15:28;100832.00;;;27.30
63220;BMP180;49320;52.512;13.448;2022-08-01T05:17:55;100836.00;;;27.30
63220;BMP180;49320;52.512;13.448;2022-08-01T05:20:23;100839.00;;;27.30
63220;BMP180;49320;52.512;13.448;2022-08-01T05:22:50;100835.00;;;27.30
63220;BMP180;49320;52.512;13.448;2022-08-01T05:25:17;100836.00;;;27.30
63220;BMP180;49320;52.512;13.448;2022-08-01T05:27:46;100828.00;;;27.30
63220;BMP180;49320;52.512;13.448;2022-08-01T05:30:17;100825.00;;;27.30
63220;BMP180;49320;52.512;13.448;2022-08-01T05:32:44;100844.00;;;27.30
63220;BMP180;49320;52.512;13.448;2022-08-01T05:35:11;100830.00;;;27.20
63220;BMP180;49320;52.512;13.448;2022-08-01T05:37:38;100827.00;;;27.20
63220;BMP180;49320;52.512;13.448;2022-08-01T05:40:06;100819.00;;;27.20
63220;BMP180;49320;52.512;13.448;2022-08-01T05:42:33;100835.00;;;27.20
63220;BMP180;49320;52.512;13.448;2022-08-01T05:45:00;100818.00;;;27.20
63220;BMP180;49320;52.512;13.448;2022-08-01T05:47:27;100837.00;;;27.20
63220;BMP180;49320;52.512;13.448;2022-08-01T05:49:54;100832.00;;;27.20
63220;BMP180;49320;52.512;13.448;2022-08-01T05:52:20;100828.00;;;27.20
63220;BMP180;49320;52.512;13.448;2022-08-01T05:54:47;100829.00;;;27.20
63220;BMP180;49320;52.512;13.448;2022-08-01T05:57:14;100846.00;;;27.30
63220;BMP180;49320;52.512;13.448;2022-08-01T05:59:41;100847.00;;;27.40
63220;BMP180;49320;52.512;13.448;2022-08-01T06:02:08;100848.00;;;27.50
63220;BMP180;49320;52.512;13.448;2022-08-01T06:04:36;100849.00;;;27.50
63220;BMP180;49320;52.512;13.448;2022-08-01T06:07:03;100858.00;;;27.60
63220;BMP180;49320;52.512;13.448;2022-08-01T06:09:29;100856.00;;;27.70
63220;BMP180;49320;52.512;13.448;2022-08-01T06:11:57;100857.00;;;27.80
63220;BMP180;49320;52.512;13.448;2022-08-01T06:14:24;100863.00;;;27.80
63220;BMP180;49320;52.512;13.448;2022-08-01T06:16:51;100846.00;;;27.90
63220;BMP180;49320;52.512;13.448;2022-08-01T06:19:18;100848.00;;;27.90
63220;BMP180;49320;52.512;13.448;2022-08-01T06:21:45;100857.00;;;27.90
63220;BMP180;49320;52.512;13.448;2022-08-01T06:24:12;100863.00;;;28.00
63220;BMP180;49320;52.512;13.448;2022-08-01T06:26:39;100867.00;;;28.00
63220;BMP180;49320;52.512;13.448;2022-08-01T06:29:06;100877.00;;;28.00
63220;BMP180;49320;52.512;13.448;2022-08-01T06:31:35;100863.00;;;27.90
63220;BMP180;49320;52.512;13.448;2022-08-01T06:34:02;100871.00;;;27.90
63220;BMP180;49320;52.512;13.448;2022-08-01T06:36:29;100864.00;;;27.80
63220;BMP180;49320;52.512;13.448;2022-08-01T06:38:56;100867.00;;;27.80
63220;BMP180;49320;52.512;13.448;2022-08-01T06:41:23;100857.00;;;27.70
63220;BMP180;49320;52.512;13.448;2022-08-01T06:43:50;100862.00;;;27.70
63220;BMP180;49320;52.512;13.448;2022-08-01T06:46:17;100862.00;;;27.70
63220;BMP180;49320;52.512;13.448;2022-08-01T06:48:44;100865.00;;;27.80
63220;BMP180;49320;52.512;13.448;2022-08-01T06:51:10;100872.00;;;27.90
63220;BMP180;49320;52.512;13.448;2022-08-01T06:53:40;100873.00;;;27.90
63220;BMP180;49320;52.512;13.448;2022-08-01T06:56:09;100869.00;;;28.00
63220;BMP180;49320;52.512;13.448;2022-08-01T06:58:36;100869.00;;;28.10
63220;BMP180;49320;52.512;13.448;2022-08-01T07:01:04;100863.00;;;28.10
63220;BMP180;49320;52.512;13.448;2022-08-01T07:03:34;100863.00;;;28.20
63220;BMP180;49320;52.512;13.448;2022-08-01T07:06:23;100865.00;;;28.30
63220;BMP180;49320;52.512;13.448;2022-08-01T07:08:51;100880.00;;;28.30
63220;BMP180;49320;52.512;13.448;2022-08-01T07:11:19;100871.00;;;28.40
63220;BMP180;49320;52.512;13.448;2022-08-01T07:13:46;100872.00;;;28.50
63220;BMP180;49320;52.512;13.448;2022-08-01T07:16:14;100875.00;;;28.40
63220;BMP180;49320;52.512;13.448;2022-08-01T07:18:42;100869.00;;;28.40
63220;BMP180;49320;52.512;13.448;2022-08-01T07:21:09;100877.00;;;28.40
63220;BMP180;49320;52.512;13.448;2022-08-01T07:23:56;100883.00;;;28.40
63220;BMP180;49320;52.512;13.448;2022-08-01T07:26:24;100877.00;;;28.30
63220;BMP180;49320;52.512;13.448;2022-08-01T07:28:53;100881.00;;;28.30
63220;BMP180;49320;52.512;13.448;2022-08-01T07:31:20;100886.00;;;28.30
63220;BMP180;49320;52.512;13.448;2022-08-01T07:33:47;100887.00;;;28.40
63220;BMP180;49320;52.512;13.448;2022-08-01T07:36:18;100895.00;;;28.30
63220;BMP180;49320;52.512;13.448;2022-08-01T07:38:46;100887.00;;;28.30
63220;BMP180;49320;52.512;13.448;2022-08-01T07:41:15;100887.00;;;28.30
63220;BMP180;49320;52.512;13.448;2022-08-01T07:43:42;100898.00;;;28.30
63220;BMP180;49320;52.512;13.448;2022-08-01T07:46:18;100898.00;;;28.20
63220;BMP180;49320;52.512;13.448;2022-08-01T07:48:45;100896.00;;;28.20
63220;BMP180;49320;52.512;13.448;2022-08-01T07:51:12;100900.00;;;28.20
63220;BMP180;49320;52.512;13.448;2022-08-01T07:53:39;100897.00;;;28.10
63220;BMP180;49320;52.512;13.448;2022-08-01T07:56:06;100902.00;;;28.10
63220;BMP180;49320;52.512;13.448;2022-08-01T07:58:33;100894.00;;;28.20
63220;BMP180;49320;52.512;13.448;2022-08-01T08:01:00;100911.00;;;28.30
63220;BMP180;49320;52.512;13.448;2022-08-01T08:03:27;100915.00;;;28.30
63220;BMP180;49320;52.512;13.448;2022-08-01T08:05:54;100909.00;;;28.40
63220;BMP180;49320;52.512;13.448;2022-08-01T08:08:26;100905.00;;;28.50
63220;BMP180;49320;52.512;13.448;2022-08-01T08:10:54;100907.00;;;28.50
63220;BMP180;49320;52.512;13.448;2022-08-01T08:13:21;100901.00;;;28.40
63220;BMP180;49320;52.512;13.448;2022-08-01T08:15:48;100916.00;;;28.40
63220;BMP180;49320;52.512;13.448;2022-08-01T08:18:15;100912.00;;;28.30
63220;BMP180;49320;52.512;13.448;2022-08-01T08:20:43;100915.00;;;28.30
63220;BMP180;49320;52.512;13.448;2022-08-01T08:23:10;100914.00;;;28.20
63220;BMP180;49320;52.512;13.448;2022-08-01T08:26:09;100918.00;;;28.10
63220;BMP180;49320;52.512;13.448;2022-08-01T08:28:37;100921.00;;;28.00
63220;BMP180;49320;52.512;13.448;2022-08-01T08:31:06;100921.00;;;28.00
63220;BMP180;49320;52.512;13.448;2022-08-01T08:33:51;100914.00;;;28.00
63220;BMP180;49320;52.512;13.448;2022-08-01T08:36:18;100927.00;;;28.00
63220;BMP180;49320;52.512;13.448;2022-08-01T08:38:45;100920.00;;;28.10
63220;BMP180;49320;52.512;13.448;2022-08-01T08:41:12;100923.00;;;28.20
63220;BMP180;49320;52.512;13.448;2022-08-01T08:43:46;100922.00;;;28.30
63220;BMP180;49320;52.512;13.448;2022-08-01T08:46:14;100928.00;;;28.40
63220;BMP180;49320;52.512;13.448;2022-08-01T08:48:42;100921.00;;;28.40
63220;BMP180;49320;52.512;13.448;2022-08-01T08:51:10;100915.00;;;28.50
63220;BMP180;49320;52.512;13.448;2022-08-01T08:53:41;100930.00;;;28.70
63220;BMP180;49320;52.512;13.448;2022-08-01T08:56:13;100923.00;;;28.80
63220;BMP180;49320;52.512;13.448;2022-08-01T08:58:44;100933.00;;;28.90
63220;BMP180;49320;52.512;13.448;2022-08-01T09:01:12;100924.00;;;28.90
63220;BMP180;49320;52.512;13.448;2022-08-01T09:03:40;100936.00;;;28.90
63220;BMP180;49320;52.512;13.448;2022-08-01T09:06:07;100935.00;;;29.00
63220;BMP180;49320;52.512;13.448;2022-08-01T09:08:35;100940.00;;;29.00
63220;BMP180;49320;52.512;13.448;2022-08-01T09:11:03;100934.00;;;29.00
63220;BMP180;49320;52.512;13.448;2022-08-01T09:13:30;100939.00;;;29.10
63220;BMP180;49320;52.512;13.448;2022-08-01T09:15:57;100933.00;;;29.20
63220;BMP180;49320;52.512;13.448;2022-08-01T09:18:38;100943.00;;;29.30
63220;BMP180;49320;52.512;13.448;2022-08-01T09:21:21;100945.00;;;29.50
63220;BMP180;49320;52.512;13.448;2022-08-01T09:23:53;100940.00;;;29.60
63220;BMP180;49320;52.512;13.448;2022-08-01T09:26:35;100942.00;;;29.70
63220;BMP180;49320;52.512;13.448;2022-08-01T09:29:06;100949.00;;;29.60
63220;BMP180;49320;52.512;13.448;2022-08-01T09:31:41;100955.00;;;29.50
63220;BMP180;49320;52.512;13.448;2022-08-01T09:34:15;100963.00;;;29.50
63220;BMP180;49320;52.512;13.448;2022-08-01T09:36:55;100955.00;;;29.50
63220;BMP180;49320;52.512;13.448;2022-08-01T09:39:30;100959.00;;;29.50
63220;BMP180;49320;52.512;13.448;2022-08-01T09:42:00;100953.00;;;29.60
63220;BMP180;49320;52.512;13.448;2022-08-01T09:44:41;100961.00;;;29.70
63220;BMP180;49320;52.512;13.448;2022-08-01T09:47:21;100961.00;;;29.70
63220;BMP180;49320;52.512;13.448;2022-08-01T09:49:56;100958.00;;;29.70
63220;BMP180;49320;52.512;13.448;2022-08-01T09:52:26;100965.00;;;29.70
63220;BMP180;49320;52.512;13.448;2022-08-01T09:55:04;100966.00;;;29.70
63220;BMP180;49320;52.512;13.448;2022-08-01T09:57:31;100979.00;;;29.70
63220;BMP180;49320;52.512;13.448;2022-08-01T10:00:00;100981.00;;;29.70
63220;BMP180;49320;52.512;13.448;2022-08-01T10:02:34;100976.00;;;29.70
63220;BMP180;49320;52.512;13.448;2022-08-01T10:05:04;100985.00;;;29.60
63220;BMP180;49320;52.512;13.448;2022-08-01T10:07:36;100985.00;;;29.60
63220;BMP180;49320;52.512;13.448;2022-08-01T10:10:24;100985.00;;;29.60
63220;BMP180;49320;52.512;13.448;2022-08-01T10:12:57;100989.00;;;29.60
63220;BMP180;49320;52.512;13.448;2022-08-01T10:15:27;100983.00;;;29.50
63220;BMP180;49320;52.512;13.448;2022-08-01T10:18:06;100994.00;;;29.50
63220;BMP180;49320;52.512;13.448;2022-08-01T10:20:53;100995.00;;;29.50
63220;BMP180;49320;52.512;13.448;2022-08-01T10:23:30;100990.00;;;29.50
63220;BMP180;49320;52.512;13.448;2022-08-01T10:26:08;100998.00;;;29.60
63220;BMP180;49320;52.512;13.448;2022-08-01T10:28:38;100993.00;;;29.60
63220;BMP180;49320;52.512;13.448;2022-08-01T10:31:07;100995.00;;;29.50
63220;BMP180;49320;52.512;13.448;2022-08-01T10:33:40;100995.00;;;29.50
63220;BMP180;49320;52.512;13.448;2022-08-01T10:36:22;100998.00;;;29.50
63220;BMP180;49320;52.512;13.448;2022-08-01T10:38:54;101000.00;;;29.50
63220;BMP180;49320;52.512;13.448;2022-08-01T10:41:21;101001.00;;;29.50
63220;BMP180;49320;52.512;13.448;2022-08-01T10:43:48;101000.00;;;29.50
63220;BMP180;49320;52.512;13.448;2022-08-01T10:46:18;101001.00;;;29.50
63220;BMP180;49320;52.512;13.448;2022-08-01T10:49:00;101009.00;;;29.50
63220;BMP180;49320;52.512;13.448;2022-08-01T10:51:28;101001.00;;;29.50
63220;BMP180;49320;52.512;13.448;2022-08-01T10:54:15;100999.00;;;29.50
63220;BMP180;49320;52.512;13.448;2022-08-01T10:56:46;101009.00;;;29.60
63220;BMP180;49320;52.512;13.448;2022-08-01T10:59:24;101007.00;;;29.60
63220;BMP180;49320;52.512;13.448;2022-08-01T11:02:11;101004.00;;;29.70
63220;BMP180;49320;52.512;13.448;2022-08-01T11:05:01;101011.00;;;29.70
63220;BMP180;49320;52.512;13.448;2022-08-01T11:07:43;101006.00;;;29.70
63220;BMP180;49320;52.512;13.448;2022-08-01T11:10:31;101004.00;;;29.70
63220;BMP180;49320;52.512;13.448;2022-08-01T11:13:00;101010.00;;;29.70
63220;BMP180;49320;52.512;13.448;2022-08-01T11:15:30;101011.00;;;29.70
63220;BMP180;49320;52.512;13.448;2022-08-01T11:18:00;101011.00;;;29.80
63220;BMP180;49320;52.512;13.448;2022-08-01T11:20:30;101013.00;;;29.90
63220;BMP180;49320;52.512;13.448;2022-08-01T11:28:27;101021.00;;;29.90
63220;BMP180;49320;52.512;13.448;2022-08-01T11:39:10;101053.00;;;29.50
63220;BMP180;49320;52.512;13.448;2022-08-01T11:41:41;101052.00;;;29.30
63220;BMP180;49320;52.512;13.448;2022-08-01T11:44:20;101050.00;;;29.20
63220;BMP180;49320;52.512;13.448;2022-08-01T11:52:23;101053.00;;;29.00
63220;BMP180;49320;52.512;13.448;2022-08-01T11:57:31;101062.00;;;29.00
63220;BMP180;49320;52.512;13.448;2022-08-01T12:00:11;101064.00;;;29.00
63220;BMP180;49320;52.512;13.448;2022-08-01T12:02:42;101053.00;;;29.10
63220;BMP180;49320;52.512;13.448;2022-08-01T12:05:15;101052.00;;;29.30
63220;BMP180;49320;52.512;13.448;2022-08-01T12:07:49;101050.00;;;29.40
63220;BMP180;49320;52.512;13.448;2022-08-01T12:10:21;101049.00;;;29.60
63220;BMP180;49320;52.512;13.448;2022-08-01T12:12:55;101047.00;;;29.80
63220;BMP180;49320;52.512;13.448;2022-08-01T12:15:24;101041.00;;;30.00
63220;BMP180;49320;52.512;13.448;2022-08-01T12:17:59;101044.00;;;30.20
63220;BMP180;49320;52.512;13.448;2022-08-01T12:20:33;101036.00;;;30.40
63220;BMP180;49320;52.512;13.448;2022-08-01T12:23:07;101043.00;;;30.60
63220;BMP180;49320;52.512;13.448;2022-08-01T12:25:35;101042.00;;;30.60
63220;BMP180;49320;52.512;13.448;2022-08-01T12:28:05;101052.00;;;30.70
63220;BMP180;49320;52.512;13.448;2022-08-01T12:30:34;101041.00;;;30.80
63220;BMP180;49320;52.512;13.448;2022-08-01T12:33:05;101051.00;;;30.80
63220;BMP180;49320;52.512;13.448;2022-08-01T12:35:34;101055.00;;;30.70
63220;BMP180;49320;52.512;13.448;2022-08-01T12:38:05;101058.00;;;30.60
63220;BMP180;49320;52.512;13.448;2022-08-01T12:40:36;101058.00;;;30.60
63220;BMP180;49320;52.512;13.448;2022-08-01T12:43:17;101055.00;;;30.50
63220;BMP180;49320;52.512;13.448;2022-08-01T12:45:59;101055.00;;;30.60
63220;BMP180;49320;52.512;13.448;2022-08-01T12:48:27;101045.00;;;30.60
63220;BMP180;49320;52.512;13.448;2022-08-01T12:51:02;101047.00;;;30.80
63220;BMP180;49320;52.512;13.448;2022-08-01T12:53:34;101046.00;;;30.90
63220;BMP180;49320;52.512;13.448;2022-08-01T12:56:07;101048.00;;;31.00
63220;BMP180;49320;52.512;13.448;2022-08-01T12:58:36;101049.00;;;31.10
63220;BMP180;49320;52.512;13.448;2022-08-01T13:01:09;101049.00;;;31.20
63220;BMP180;49320;52.512;13.448;2022-08-01T13:03:38;101051.00;;;31.30
63220;BMP180;49320;52.512;13.448;2022-08-01T13:06:14;101048.00;;;31.40
63220;BMP180;49320;52.512;13.448;2022-08-01T13:08:43;101060.00;;;31.50
63220;BMP180;49320;52.512;13.448;2022-08-01T13:11:13;101054.00;;;31.50
63220;BMP180;49320;52.512;13.448;2022-08-01T13:13:44;101050.00;;;31.50
63220;BMP180;49320;52.512;13.448;2022-08-01T13:16:19;101053.00;;;31.50
63220;BMP180;49320;52.512;13.448;2022-08-01T13:19:04;101054.00;;;31.40
63220;BMP180;49320;52.512;13.448;2022-08-01T13:21:33;101053.00;;;31.30
63220;BMP180;49320;52.512;13.448;2022-08-01T13:24:28;101050.00;;;31.20
63220;BMP180;49320;52.512;13.448;2022-08-01T13:27:06;101053.00;;;31.10
63220;BMP180;49320;52.512;13.448;2022-08-01T13:29:38;101048.00;;;31.00
63220;BMP180;49320;52.512;13.448;2022-08-01T13:32:20;101057.00;;;31.00
63220;BMP180;49320;52.512;13.448;2022-08-01T13:35:12;101055.00;;;30.90
63220;BMP180;49320;52.512;13.448;2022-08-01T13:37:41;101061.00;;;30.90
63220;BMP180;49320;52.512;13.448;2022-08-01T13:40:11;101064.00;;;30.90
63220;BMP180;49320;52.512;13.448;2022-08-01T13:42:38;101056.00;;;30.90
63220;BMP180;49320;52.512;13.448;2022-08-01T13:45:07;101057.00;;;30.90
63220;BMP180;49320;52.512;13.448;2022-08-01T13:47:39;101056.00;;;31.00
63220;BMP180;49320;52.512;13.448;2022-08-01T13:50:26;101053.00;;;30.90
63220;BMP180;49320;52.512;13.448;2022-08-01T13:52:54;101054.00;;;30.90
63220;BMP180;49320;52.512;13.448;2022-08-01T13:55:22;101060.00;;;30.90
63220;BMP180;49320;52.512;13.448;2022-08-01T13:57:49;101075.00;;;30.80
63220;BMP180;49320;52.512;13.448;2022-08-01T14:00:16;101067.00;;;30.70
63220;BMP180;49320;52.512;13.448;2022-08-01T14:02:43;101068.00;;;30.60
63220;BMP180;49320;52.512;13.448;2022-08-01T14:05:10;101073.00;;;30.60
63220;BMP180;49320;52.512;13.448;2022-08-01T14:07:37;101080.00;;;30.50
63220;BMP180;49320;52.512;13.448;2022-08-01T14:10:07;101088.00;;;30.50
63220;BMP180;49320;52.512;13.448;2022-08-01T14:12:49;101083.00;;;30.50
63220;BMP180;49320;52.512;13.448;2022-08-01T14:15:17;101091.00;;;30.60
63220;BMP180;49320;52.512;13.448;2022-08-01T14:18:08;101091.00;;;30.50
63220;BMP180;49320;52.512;13.448;2022-08-01T14:20:38;101080.00;;;30.60
63220;BMP180;49320;52.512;13.448;2022-08-01T14:23:06;101093.00;;;30.70
63220;BMP180;49320;52.512;13.448;2022-08-01T14:25:40;101093.00;;;30.80
63220;BMP180;49320;52.512;13.448;2022-08-01T14:28:27;101084.00;;;31.00
63220;BMP180;49320;52.512;13.448;2022-08-01T14:30:56;101092.00;;;31.10
63220;BMP180;49320;52.512;13.448;2022-08-01T14:33:25;101093.00;;;31.20